Datos. Málaga, Centro Meteorológico

Actualizado: sábado, 31 enero 2015 a las 13:32 hora oficial
Ind. climatológico: 6156X -  Altitud (m): 54
Latitud36° 43' 4'' N - Longitud4° 28' 54'' O -  PosiciónVer localización
MunicipioMálaga (Málaga) - Ver predicción
Registros - de
Fecha y hora oficial

 

Temp. (°C)

 

V. vien. (km/h)

 

Dir. viento

 

Racha (km/h)

 

Dir. racha

 

Prec. (mm)

 

Presión (hPa)

 

Tend. (hPa)

 

Humedad (%)

 

31/01/2015 13:00 18.1 19 9-NoroesteNoroeste 66 8-OesteOeste 0.0 1000.3 1.7 56
31/01/2015 12:00 18.1 25 9-NoroesteNoroeste 50 9-NoroesteNoroeste 0.0 999.9 2.0 58
31/01/2015 11:00 18.0 15 8-OesteOeste 38 8-OesteOeste 0.0 999.1 1.5 59
31/01/2015 10:00 17.7 21 8-OesteOeste 55 8-OesteOeste 0.0 998.6 0.4 61
31/01/2015 09:00 18.4 31 8-OesteOeste 61 8-OesteOeste 0.0 997.9 -0.5 59
31/01/2015 08:00 18.5 21 8-OesteOeste 46 8-OesteOeste 0.0 997.6 -1.7 61
31/01/2015 07:00 17.3 9 9-NoroesteNoroeste 27 2-NorteNorte 0.0 998.2 -1.3 68
31/01/2015 06:00 16.6 10 9-NoroesteNoroeste 33 9-NoroesteNoroeste 0.0 998.4 -2.0 73
31/01/2015 05:00 15.9 12 9-NoroesteNoroeste 36 9-NoroesteNoroeste 0.3 999.3 -1.9 79
31/01/2015 04:00 17.1 12 9-NoroesteNoroeste 30 9-NoroesteNoroeste 0.0 999.5 -2.5 70
31/01/2015 03:00 17.4 8 9-NoroesteNoroeste 21 8-OesteOeste 0.0 1000.4 -2.1 69
31/01/2015 02:00 17.3 5 9-NoroesteNoroeste 24 2-NorteNorte 0.0 1001.2 -1.7 69
31/01/2015 01:00 17.5 8 9-NoroesteNoroeste 26 2-NorteNorte 0.0 1002.0 -1.4 68
31/01/2015 00:00 17.4 7 2-NorteNorte 27 9-NoroesteNoroeste 0.0 1002.5 -1.2 69
30/01/2015 23:00 17.8 9 9-NoroesteNoroeste 31 9-NoroesteNoroeste 0.0 1002.9 -0.7 68
30/01/2015 22:00 18.1 16 9-NoroesteNoroeste 34 8-OesteOeste 0.0 1003.4 -0.8 68
30/01/2015 21:00 18.1 5 9-NoroesteNoroeste 22 8-OesteOeste 0.0 1003.7 -0.5 68
30/01/2015 20:00 18.0 14 9-NoroesteNoroeste 34 9-NoroesteNoroeste 0.0 1003.6 -0.7 68
30/01/2015 19:00 17.9 13 9-NoroesteNoroeste 45 9-NoroesteNoroeste 0.0 1004.2 -0.2 68
30/01/2015 18:00 17.7 9 9-NoroesteNoroeste 36 9-NoroesteNoroeste 0.0 1004.2 -0.8 68
30/01/2015 17:00 17.9 21 9-NoroesteNoroeste 46 8-OesteOeste 0.0 1004.3 -0.9 67
30/01/2015 16:00 18.5 13 9-NoroesteNoroeste 47 9-NoroesteNoroeste 0.0 1004.4 -1.8 64
30/01/2015 15:00 18.5 23 8-OesteOeste 53 9-NoroesteNoroeste 0.0 1005.0 -2.4 62
30/01/2015 14:00 19.8 15 9-NoroesteNoroeste 38 9-NoroesteNoroeste 0.0 1005.2 -2.5 61
First Page First Page First Page Last Page
Lineas por página
Página   de  
Compartir:  
En esta página podrá acceder, en forma gráfica y en tabla, a las observaciones horarias de las últimas 24 horas, así como a los valores extremos y acumulados desde las 00 horas del día hasta la hora de actualización indicada, obtenidos en la red de estaciones de AEMET. También podrá acceder a los resúmenes diarios de estas estaciones en los últimos 7 días.

En el mapa aparecen estaciones con valor númerico y otras representadas por un punto. En las primeras, al pasar el ratón, aparece un desplegable con la información completa de la estación. Las estaciones representadas por un punto son estaciones de la red climatológica, con transmisión de datos superior a la hora, por lo que al seleccionarlas pueden no aparecer los últimos datos.

Los datos presentados han sido únicamente sometidos a controles automáticos de calidad en tiempo real, por lo que no puede garantizarse la ausencia de errores.
© AEMET. Autorizado el uso de la información y su reproducción citando a AEMET como autora de la misma.